M I D A S
Marine Information and Data Acquisition System
Tripno 1737 of the Zeeleeuw from 2009-07-23 07:29:28 to 2009-07-23 14:44:42
Back to CruiseResearch ActivitiesStationsMapUnderway DataData graphs

EquipmentUnitsComments
TimeDGPSUTC
LatitudeDGPSDM.mWGS84
LongitudeDGPSDM.mWGS84
SpeedMeteo Stationm/sRelative wind speed
DirectionMeteo StationdegRelative wind direction
TemperatureMeteo Stationdeg CelciusAir temperature
PressureMeteo StationPaAtmospheric pressure
HumidityMeteo Station%Relative humidity
Missing or incorrect values are displayed as -999
Metereological data collected by the RV Zeeleeuw from 2009-07-23 07:24:28 to 2009-07-23 14:51:59
Time Latitude Longitude Speed Direction Temperature Pressure Humidity
2009-07-23 07:25 51°13.679 2°55.905 2.4 31 15.3 100290 87
2009-07-23 07:26 51°13.697 2°55.823 2.4 44 15.3 100290 88
2009-07-23 07:27 51°13.696 2°55.76 3.2 25 15.4 100300 87
2009-07-23 07:28 51°13.699 2°55.739 1.2 27 15.3 100300 86
2009-07-23 07:29 51°13.747 2°55.709 2.4 245 15.3 100290 86
2009-07-23 07:30 51°13.864 2°55.608 3.5 330 15.3 100290 71
2009-07-23 07:31 51°14.005 2°55.5 2.9 328 15.4 100280 84
2009-07-23 07:32 51°14.146 2°55.389 3.5 326 15.4 100280 85
2009-07-23 07:33 51°14.267 2°55.24 3.7 21 15.4 100280 85
2009-07-23 07:34 51°14.377 2°55.05 5.6 22 15.4 100290 89
2009-07-23 07:35 51°14.512 2°54.874 5.9 20 15.3 100290 82
2009-07-23 07:36 51°14.666 2°54.714 5.9 23 15.4 100280 86
2009-07-23 07:37 51°14.825 2°54.551 4.8 23 15.4 100290 86
2009-07-23 07:38 51°14.987 2°54.404 5 27 15.4 100290 88
2009-07-23 07:39 51°15.149 2°54.258 4.4 28 15.4 100290 89
2009-07-23 07:40 51°15.31 2°54.11 6.2 22 15.5 100290 86
2009-07-23 07:41 51°15.474 2°53.967 5.4 21 15.6 100290 88
2009-07-23 07:42 51°15.636 2°53.816 5.4 25 15.6 100290 90
2009-07-23 07:43 51°15.799 2°53.666 6.3 26 15.6 100290 89
2009-07-23 07:44 51°15.963 2°53.515 6.4 23 15.6 100300 89
2009-07-23 07:45 51°16.123 2°53.355 5.3 21 15.7 100290 89
2009-07-23 07:46 51°16.282 2°53.196 5.9 20 15.7 100300 88
2009-07-23 07:47 51°16.443 2°53.043 6.3 21 15.8 100290 88
2009-07-23 07:48 51°16.605 2°52.895 7.5 24 15.8 100290 86
2009-07-23 07:49 51°16.764 2°52.746 5.7 28 15.8 100290 85
2009-07-23 07:50 51°16.919 2°52.603 5.2 23 15.8 100290 87
2009-07-23 07:51 51°17.074 2°52.457 5.7 21 15.8 100280 88
2009-07-23 07:52 51°17.232 2°52.322 6.2 27 15.9 100270 86
2009-07-23 07:53 51°17.392 2°52.192 6.4 20 15.9 100270 87
2009-07-23 07:54 51°17.551 2°52.062 7 21 15.9 100270 89
2009-07-23 07:55 51°17.708 2°51.929 6.6 28 15.8 100280 86
2009-07-23 07:56 51°17.866 2°51.797 7.6 22 15.8 100270 86
2009-07-23 07:57 51°18.024 2°51.663 7.4 26 15.8 100270 88
2009-07-23 07:58 51°18.186 2°51.534 6.6 29 15.8 100270 88
2009-07-23 07:59 51°18.348 2°51.399 6.2 243 15.8 100280 89
2009-07-23 08:00 51°18.508 2°51.26 6.1 25 15.8 100270 90
2009-07-23 08:01 51°18.668 2°51.118 7.8 25 15.8 100260 89
2009-07-23 08:02 51°18.823 2°50.96 8.1 19 15.9 100260 88
2009-07-23 08:03 51°18.976 2°50.791 7.2 26 15.9 100260 85
2009-07-23 08:04 51°19.129 2°50.624 10 22 16 100270 86
2009-07-23 08:05 51°19.284 2°50.462 9.5 24 16 100280 90
2009-07-23 08:06 51°19.44 2°50.299 10.5 25 16.1 100270 92
2009-07-23 08:07 51°19.598 2°50.138 9.5 26 16.1 100270 89
2009-07-23 08:08 51°19.758 2°49.977 9.9 26 16.2 100270 88
2009-07-23 08:09 51°19.916 2°49.812 8.6 20 16.2 100260 86
2009-07-23 08:10 51°20.068 2°49.629 9.4 27 16.3 100260 86
2009-07-23 08:11 51°20.218 2°49.441 9 27 16.3 100260 87
2009-07-23 08:12 51°20.367 2°49.249 9.3 20 16.3 100260 86
2009-07-23 08:13 51°20.516 2°49.059 8.6 26 16.3 100260 86
2009-07-23 08:14 51°20.666 2°48.873 8.9 21 16.4 100260 87
2009-07-23 08:15 51°20.816 2°48.685 8.7 27 16.4 100260 84
2009-07-23 08:16 51°20.966 2°48.496 8.9 24 16.5 100260 86
2009-07-23 08:17 51°21.118 2°48.313 9.7 25 16.6 100260 87
2009-07-23 08:18 51°21.271 2°48.129 10.1 20 16.6 100260 86
2009-07-23 08:19 51°21.424 2°47.939 10.2 24 16.6 100250 86
2009-07-23 08:20 51°21.579 2°47.752 8.5 23 16.6 100260 83
2009-07-23 08:21 51°21.735 2°47.572 8.1 25 16.5 100250 81
2009-07-23 08:22 51°21.891 2°47.392 8.9 25 16.6 100250 85
2009-07-23 08:23 51°22.046 2°47.214 9.6 25 16.5 100250 84
2009-07-23 08:24 51°22.198 2°47.035 8.7 21 16.4 100250 81
2009-07-23 08:25 51°22.346 2°46.853 10.5 27 16.6 100250 82
2009-07-23 08:26 51°22.495 2°46.672 11.1 21 16.6 100250 82
2009-07-23 08:27 51°22.644 2°46.491 10.2 28 16.6 100240 81
2009-07-23 08:28 51°22.794 2°46.311 9.4 24 16.7 100250 81
2009-07-23 08:29 51°22.945 2°46.132 10.4 24 16.7 100250 83
2009-07-23 08:30 51°23.095 2°45.951 11.3 27 16.7 100240 83
2009-07-23 08:31 51°23.243 2°45.766 11 29 16.7 100240 82
2009-07-23 08:32 51°23.388 2°45.586 11.2 26 16.7 100240 81
2009-07-23 08:33 51°23.536 2°45.398 11.2 25 16.7 100230 76
2009-07-23 08:34 51°23.683 2°45.212 10.7 28 16.6 100240 82
2009-07-23 08:35 51°23.829 2°45.026 9.7 26 16.5 100240 80
2009-07-23 08:36 51°23.981 2°44.977 7 22 16.4 100260 80
2009-07-23 08:37 51°24.136 2°45.07 5.3 246 16.4 100270 76
2009-07-23 08:38 51°24.279 2°45.194 3.8 248 16.4 100270 81
2009-07-23 08:39 51°24.393 2°45.38 3.3 247 16.4 100280 80
2009-07-23 08:40 51°24.476 2°45.605 1.7 257 16.4 100290 79
2009-07-23 08:41 51°24.55 2°45.84 2.3 255 16.4 100280 78
2009-07-23 08:42 51°24.647 2°46.054 3.8 252 16.4 100280 78
2009-07-23 08:43 51°24.749 2°46.26 2.8 26 16.4 100280 78
2009-07-23 08:44 51°24.849 2°46.468 3.4 256 16.4 100280 79
2009-07-23 08:45 51°24.936 2°46.691 3.1 257 16.4 100290 79
2009-07-23 08:46 51°25.022 2°46.919 3.2 257 16.3 100290 77
2009-07-23 08:47 51°25.106 2°47.151 2.2 258 16.3 100290 80
2009-07-23 08:48 51°25.192 2°47.38 3 256 16.3 100280 78
2009-07-23 08:49 51°25.279 2°47.608 3.9 255 16.3 100280 78
2009-07-23 08:50 51°25.367 2°47.834 3.4 257 16.3 100290 78
2009-07-23 08:51 51°25.456 2°48.059 2.4 264 16.3 100290 77
2009-07-23 08:52 51°25.542 2°48.288 1.6 265 16.3 100280 78
2009-07-23 08:53 51°25.626 2°48.515 3.9 255 16.4 100280 78
2009-07-23 08:54 51°25.713 2°48.741 3.5 256 16.4 100290 80
2009-07-23 08:55 51°25.799 2°48.966 3 250 16.4 100290 79
2009-07-23 08:56 51°25.89 2°49.189 2.7 257 16.4 100280 78
2009-07-23 08:57 51°25.978 2°49.413 2.3 23 16.5 100280 75
2009-07-23 08:58 51°26.065 2°49.638 3.2 255 16.5 100280 79
2009-07-23 08:59 51°26.154 2°49.861 1.9 20 16.5 100280 79
2009-07-23 09:00 51°26.241 2°50.088 2.1 249 16.5 100280 77
2009-07-23 09:01 51°26.327 2°50.317 2.5 22 16.5 100280 78
2009-07-23 09:02 51°26.416 2°50.543 1.9 27 16.6 100280 78
2009-07-23 09:03 51°26.504 2°50.769 2.2 249 16.6 100280 78
2009-07-23 09:04 51°26.592 2°50.996 2 25 16.6 100280 78
2009-07-23 09:05 51°26.68 2°51.226 2.4 253 16.7 100280 79
2009-07-23 09:06 51°26.766 2°51.459 2.5 256 16.7 100280 78
2009-07-23 09:07 51°26.854 2°51.689 2.6 255 16.7 100280 78
2009-07-23 09:08 51°26.942 2°51.921 2.5 256 16.7 100280 77
2009-07-23 09:09 51°27.027 2°52.152 2 254 16.8 100280 78
2009-07-23 09:10 51°27.111 2°52.382 0.9 28 16.8 100280 76
2009-07-23 09:11 51°27.196 2°52.614 1.4 253 16.9 100280 65
2009-07-23 09:12 51°27.279 2°52.846 1.3 248 17 100280 78
2009-07-23 09:13 51°27.363 2°53.079 2.2 259 17 100280 78
2009-07-23 09:14 51°27.446 2°53.31 2.1 270 17 100280 76
2009-07-23 09:15 51°27.531 2°53.537 1.1 244 17 100280 77
2009-07-23 09:16 51°27.615 2°53.766 2 23 17.1 100280 75
2009-07-23 09:17 51°27.7 2°53.992 1.4 22 17.2 100280 77
2009-07-23 09:18 51°27.782 2°54.22 0.9 21 17.3 100270 76
2009-07-23 09:19 51°27.864 2°54.449 1.6 245 17.4 100270 77
2009-07-23 09:20 51°27.945 2°54.68 2.5 244 17.4 100270 77
2009-07-23 09:21 51°28.028 2°54.909 3.1 247 17.4 100270 77
2009-07-23 09:22 51°28.112 2°55.136 2.7 249 17.4 100270 76
2009-07-23 09:23 51°28.196 2°55.362 2.4 21 17.4 100270 74
2009-07-23 09:24 51°28.279 2°55.59 1.6 250 17.5 100270 75
2009-07-23 09:25 51°28.362 2°55.815 1.8 27 17.5 100270 75
2009-07-23 09:26 51°28.45 2°56.036 3.4 244 17.6 100270 75
2009-07-23 09:27 51°28.534 2°56.26 2.8 25 17.6 100270 73
2009-07-23 09:28 51°28.618 2°56.485 2 250 17.7 100270 73
2009-07-23 09:29 51°28.701 2°56.714 2.1 26 17.7 100270 73
2009-07-23 09:30 51°28.785 2°56.941 2.1 256 17.7 100260 74
2009-07-23 09:31 51°28.869 2°57.166 1.4 249 17.8 100270 73
2009-07-23 09:32 51°28.956 2°57.388 2.8 245 17.8 100260 62
2009-07-23 09:33 51°29.042 2°57.612 2.5 256 17.8 100260 73
2009-07-23 09:34 51°29.129 2°57.837 2.5 254 17.8 100270 74
2009-07-23 09:35 51°29.218 2°58.061 1.7 254 17.9 100270 62
2009-07-23 09:36 51°29.306 2°58.285 3.3 249 17.9 100270 70
2009-07-23 09:37 51°29.395 2°58.508 3 250 18 100270 72
2009-07-23 09:38 51°29.481 2°58.734 3.2 252 18.1 100270 73
2009-07-23 09:39 51°29.568 2°58.961 3.5 254 18.1 100270 71
2009-07-23 09:40 51°29.654 2°59.188 3.3 251 18.1 100270 72
2009-07-23 09:41 51°29.739 2°59.412 2.9 254 18.1 100270 72
2009-07-23 09:42 51°29.822 2°59.632 2.6 260 18.1 100270 71
2009-07-23 09:43 51°29.911 2°59.851 3.2 258 18 100270 71
2009-07-23 09:44 51°29.999 3°0.071 2.5 258 18 100280 71
2009-07-23 09:45 51°30.085 3°0.287 2.1 263 18 100280 72
2009-07-23 09:46 51°30.172 3°0.51 2.4 254 17.9 100290 70
2009-07-23 09:47 51°30.262 3°0.738 2.6 258 17.8 100290 70
2009-07-23 09:48 51°30.354 3°0.966 2.1 253 17.8 100300 71
2009-07-23 09:49 51°30.442 3°1.197 1.8 251 17.8 100300 71
2009-07-23 09:50 51°30.532 3°1.426 1 259 17.9 100300 71
2009-07-23 09:51 51°30.622 3°1.657 2.6 250 17.9 100300 72
2009-07-23 09:52 51°30.712 3°1.888 2.9 252 18 100300 71
2009-07-23 09:53 51°30.803 3°2.118 2.5 256 18 100300 71
2009-07-23 09:54 51°30.893 3°2.349 1.8 25 18 100300 72
2009-07-23 09:55 51°30.974 3°2.592 1.6 248 18 100300 74
2009-07-23 09:56 51°31.052 3°2.835 2.1 246 18.1 100310 72
2009-07-23 09:57 51°31.132 3°3.078 4 256 18.1 100300 73
2009-07-23 09:58 51°31.211 3°3.322 2.7 259 18 100300 71
2009-07-23 09:59 51°31.293 3°3.567 2.7 261 18 100300 72
2009-07-23 10:00 51°31.373 3°3.813 2.9 260 18 100310 72
2009-07-23 10:01 51°31.454 3°4.055 3.8 255 18 100310 71
2009-07-23 10:02 51°31.532 3°4.296 2.6 258 18 100310 72
2009-07-23 10:03 51°31.61 3°4.539 2.6 259 18.1 100310 73
2009-07-23 10:04 51°31.696 3°4.773 4.7 254 18 100310 64
2009-07-23 10:05 51°31.846 3°4.887 8.8 22 18.1 100300 63
2009-07-23 10:06 51°32.016 3°4.835 9.4 26 18 100280 62
2009-07-23 10:07 51°32.176 3°4.674 10.3 27 18 100270 63
2009-07-23 10:08 51°32.336 3°4.509 10.4 28 17.8 100280 63
2009-07-23 10:09 51°32.478 3°4.314 12.2 21 17.6 100270 62
2009-07-23 10:10 51°32.593 3°4.071 11.3 315 17.6 100280 61
2009-07-23 10:11 51°32.708 3°3.83 12 22 17.5 100280 62
2009-07-23 10:12 51°32.821 3°3.589 12.1 21 17.4 100290 62
2009-07-23 10:13 51°32.934 3°3.35 12.4 317 17.4 100290 77
2009-07-23 10:14 51°33.041 3°3.109 12.5 318 17.4 100290 76
2009-07-23 10:15 51°33.016 3°2.819 13.7 331 17.5 100300 76
2009-07-23 10:16 51°32.914 3°2.526 10.6 334 17.5 100300 77
2009-07-23 10:17 51°32.805 3°2.236 11.5 333 17.5 100290 69
2009-07-23 10:18 51°32.698 3°1.945 14.1 332 17.4 100290 76
2009-07-23 10:19 51°32.595 3°1.651 12.3 335 17.4 100300 76
2009-07-23 10:20 51°32.488 3°1.358 12.4 334 17.4 100300 75
2009-07-23 10:21 51°32.378 3°1.064 14.2 334 17.4 100310 76
2009-07-23 10:22 51°32.268 3°0.768 12.8 334 17.5 100320 78
2009-07-23 10:23 51°32.162 3°0.47 14.6 332 17.5 100310 80
2009-07-23 10:24 51°32.056 3°0.174 12.2 332 17.4 100320 77
2009-07-23 10:25 51°31.949 2°59.88 13.9 331 17.4 100310 78
2009-07-23 10:26 51°31.845 2°59.583 13.6 333 17.3 100320 77
2009-07-23 10:27 51°31.74 2°59.29 12.9 333 17.3 100310 77
2009-07-23 10:28 51°31.633 2°59 12.4 334 17.3 100320 79
2009-07-23 10:29 51°31.529 2°58.707 13.6 334 17.3 100320 78
2009-07-23 10:30 51°31.426 2°58.417 12.3 334 17.3 100330 78
2009-07-23 10:31 51°31.323 2°58.124 12.2 332 17.3 100320 79
2009-07-23 10:32 51°31.223 2°57.826 13.1 331 17.4 100320 81
2009-07-23 10:33 51°31.122 2°57.527 14.4 333 17.4 100320 81
2009-07-23 10:34 51°31.019 2°57.227 14.2 333 17.3 100310 78
2009-07-23 10:35 51°30.918 2°56.924 14.1 335 17.3 100320 77
2009-07-23 10:36 51°30.82 2°56.62 13 333 17.4 100320 66
2009-07-23 10:37 51°30.721 2°56.315 12.9 335 17.4 100320 79
2009-07-23 10:38 51°30.62 2°56.014 13.3 334 17.4 100320 77
2009-07-23 10:39 51°30.52 2°55.714 13.1 330 17.4 100320 79
2009-07-23 10:40 51°30.424 2°55.413 13 333 17.4 100320 76
2009-07-23 10:41 51°30.33 2°55.117 11.9 333 17.4 100330 77
2009-07-23 10:42 51°30.239 2°54.821 13 334 17.5 100330 78
2009-07-23 10:43 51°30.145 2°54.527 13.3 333 17.5 100330 78
2009-07-23 10:44 51°30.051 2°54.233 11.6 333 17.4 100320 73
2009-07-23 10:45 51°29.957 2°53.943 11.2 331 17.5 100340 78
2009-07-23 10:46 51°29.865 2°53.653 13 331 17.5 100330 79
2009-07-23 10:47 51°29.774 2°53.365 11.4 333 17.5 100330 80
2009-07-23 10:48 51°29.678 2°53.079 11.5 334 17.4 100340 77
2009-07-23 10:49 51°29.585 2°52.79 12 331 17.5 100340 80
2009-07-23 10:50 51°29.487 2°52.508 11.5 333 17.3 100340 77
2009-07-23 10:51 51°29.388 2°52.226 11.8 334 17.4 100330 79
2009-07-23 10:52 51°29.289 2°51.943 11.7 331 17.3 100340 80
2009-07-23 10:53 51°29.19 2°51.66 13.5 333 17.2 100340 76
2009-07-23 10:54 51°29.091 2°51.377 11.8 334 17.3 100340 75
2009-07-23 10:55 51°28.992 2°51.094 11.3 334 17.3 100340 76
2009-07-23 10:56 51°28.892 2°50.81 13.7 335 17.3 100340 74
2009-07-23 10:57 51°28.792 2°50.525 12 332 17.3 100340 75
2009-07-23 10:58 51°28.693 2°50.24 13.5 333 17.4 100340 77
2009-07-23 10:59 51°28.59 2°49.959 13.8 333 17.3 100340 77
2009-07-23 11:00 51°28.491 2°49.675 12 332 17.3 100330 75
2009-07-23 11:01 51°28.393 2°49.392 13.2 334 17.4 100340 78
2009-07-23 11:02 51°28.294 2°49.109 10.5 329 17.4 100340 79
2009-07-23 11:03 51°28.199 2°48.823 13.4 330 17.3 100340 79
2009-07-23 11:04 51°28.101 2°48.54 11.9 330 17.3 100340 78
2009-07-23 11:05 51°28.002 2°48.259 12.5 330 17.3 100330 78
2009-07-23 11:06 51°27.904 2°47.977 12.3 332 17.4 100330 78
2009-07-23 11:07 51°27.809 2°47.694 12.9 332 17.3 100330 78
2009-07-23 11:08 51°27.714 2°47.41 12.7 332 17.3 100330 80
2009-07-23 11:09 51°27.617 2°47.13 11.2 330 17.3 100330 77
2009-07-23 11:10 51°27.519 2°46.848 12.8 332 17.4 100330 80
2009-07-23 11:11 51°27.424 2°46.564 11.1 329 17.3 100340 77
2009-07-23 11:12 51°27.328 2°46.282 11.8 330 17.4 100340 80
2009-07-23 11:13 51°27.232 2°46.001 12.5 330 17.3 100330 79
2009-07-23 11:14 51°27.134 2°45.722 11.9 332 17.4 100340 80
2009-07-23 11:15 51°27.039 2°45.442 12.8 331 17.3 100340 79
2009-07-23 11:16 51°26.943 2°45.165 11.3 331 17.3 100330 79
2009-07-23 11:17 51°26.85 2°44.888 13.3 331 17.3 100340 81
2009-07-23 11:18 51°26.758 2°44.611 12.1 331 17.3 100340 81
2009-07-23 11:19 51°26.665 2°44.335 12.3 329 17.3 100340 81
2009-07-23 11:20 51°26.577 2°44.057 13 332 17.3 100340 80
2009-07-23 11:21 51°26.492 2°43.78 13.3 326 17.3 100340 81
2009-07-23 11:22 51°26.507 2°43.488 10.7 321 17.3 100350 79
2009-07-23 11:23 51°26.592 2°43.235 10.3 26 17.3 100340 79
2009-07-23 11:24 51°26.726 2°43.028 10.3 26 17.4 100350 80
2009-07-23 11:25 51°26.879 2°42.856 11.2 28 17.4 100350 81
2009-07-23 11:26 51°27.037 2°42.694 10.8 20 17.3 100360 80
2009-07-23 11:27 51°27.196 2°42.534 11.1 26 17.4 100350 80
2009-07-23 11:28 51°27.364 2°42.415 9.8 24 17.4 100360 78
2009-07-23 11:29 51°27.548 2°42.396 5.3 247 17.4 100360 79
2009-07-23 11:30 51°27.681 2°42.602 2.6 250 17.5 100380 80
2009-07-23 11:31 51°27.783 2°42.873 2.2 249 17.6 100380 78
2009-07-23 11:32 51°27.881 2°43.151 1.6 260 17.7 100380 78
2009-07-23 11:33 51°27.98 2°43.429 1.5 264 17.7 100380 79
2009-07-23 11:34 51°28.08 2°43.708 1.4 269 17.7 100380 78
2009-07-23 11:35 51°28.18 2°43.99 1.9 254 17.7 100390 78
2009-07-23 11:36 51°28.28 2°44.274 1.5 259 17.8 100390 78
2009-07-23 11:37 51°28.381 2°44.556 1.3 265 17.8 100390 77
2009-07-23 11:38 51°28.482 2°44.838 1 270 17.9 100390 77
2009-07-23 11:39 51°28.582 2°45.124 1.8 29 17.9 100390 78
2009-07-23 11:40 51°28.683 2°45.409 1.1 255 18 100390 78
2009-07-23 11:41 51°28.784 2°45.692 1.1 253 18 100380 76
2009-07-23 11:42 51°28.887 2°45.974 0.9 244 18.1 100390 77
2009-07-23 11:43 51°28.986 2°46.26 1 22 18.2 100380 77
2009-07-23 11:44 51°29.085 2°46.548 0.8 26 18.3 100380 77
2009-07-23 11:45 51°29.185 2°46.835 0.8 253 18.4 100380 76
2009-07-23 11:46 51°29.286 2°47.121 0.3 250 18.5 100390 72
2009-07-23 11:47 51°29.39 2°47.401 0.5 29 18.6 100390 76
2009-07-23 11:48 51°29.492 2°47.683 1.6 24 18.6 100390 76
2009-07-23 11:49 51°29.591 2°47.969 2 250 18.7 100390 75
2009-07-23 11:50 51°29.692 2°48.255 1.2 255 18.7 100390 73
2009-07-23 11:51 51°29.79 2°48.542 2.3 253 18.7 100380 74
2009-07-23 11:52 51°29.89 2°48.828 2 258 18.7 100390 73
2009-07-23 11:53 51°29.992 2°49.112 1 258 18.6 100380 72
2009-07-23 11:54 51°30.096 2°49.395 2.1 258 18.6 100390 73
2009-07-23 11:55 51°30.197 2°49.68 1.6 244 18.6 100380 74
2009-07-23 11:56 51°30.298 2°49.966 1.2 262 18.6 100390 73
2009-07-23 11:57 51°30.398 2°50.254 1.3 260 18.6 100390 73
2009-07-23 11:58 51°30.502 2°50.538 1.1 23 18.6 100390 73
2009-07-23 11:59 51°30.605 2°50.824 0.6 250 18.7 100390 73
2009-07-23 12:00 51°30.708 2°51.113 0.5 266 18.8 100390 73
2009-07-23 12:01 51°30.81 2°51.403 0.9 243 18.8 100390 73
2009-07-23 12:02 51°30.913 2°51.692 0.6 258 18.8 100390 73
2009-07-23 12:03 51°31.017 2°51.98 1.3 21 18.9 100390 73
2009-07-23 12:04 51°31.121 2°52.267 0.6 261 19 100390 72
2009-07-23 12:05 51°31.224 2°52.556 0.7 266 19 100400 72
2009-07-23 12:06 51°31.329 2°52.845 0.6 24 19.1 100390 71
2009-07-23 12:07 51°31.433 2°53.135 0.7 22 19.2 100390 71
2009-07-23 12:08 51°31.538 2°53.426 0.4 257 19.3 100400 70
2009-07-23 12:09 51°31.642 2°53.717 0.8 22 19.3 100400 69
2009-07-23 12:10 51°31.747 2°54.006 1 29 19.4 100400 69
2009-07-23 12:11 51°31.855 2°54.293 0.5 22 19.4 100400 68
2009-07-23 12:12 51°31.967 2°54.575 3.4 260 19.5 100400 69
2009-07-23 12:13 51°32.14 2°54.685 8.3 27 19.5 100390 67
2009-07-23 12:14 51°32.333 2°54.716 7.2 21 19.3 100390 68
2009-07-23 12:15 51°32.528 2°54.72 7.2 26 19.1 100390 69
2009-07-23 12:16 51°32.724 2°54.714 8.4 29 18.9 100390 70
2009-07-23 12:17 51°32.92 2°54.718 7 24 18.7 100390 70
2009-07-23 12:18 51°33.118 2°54.764 7.8 242 18.6 100390 72
2009-07-23 12:19 51°33.31 2°54.868 4 244 18.5 100390 73
2009-07-23 12:20 51°33.49 2°55.027 2.2 252 18.5 100400 72
2009-07-23 12:21 51°33.639 2°55.257 0.4 261 18.5 100400 74
2009-07-23 12:22 51°33.633 2°55.568 7.2 8 18.5 100400 72
2009-07-23 12:23 51°33.575 2°55.89 5.3 9 18.1 100400 72
2009-07-23 12:24 51°33.525 2°56.217 5.1 11 17.9 100400 75
2009-07-23 12:25 51°33.495 2°56.547 4.6 6 17.8 100400 76
2009-07-23 12:26 51°33.504 2°56.881 3.5 15 17.6 100410 75
2009-07-23 12:27 51°33.527 2°57.213 2.9 5 17.4 100400 73
2009-07-23 12:28 51°33.547 2°57.547 2.6 18 17.5 100410 75
2009-07-23 12:29 51°33.582 2°57.876 2 9 17.6 100400 75
2009-07-23 12:30 51°33.629 2°58.204 3 11 17.7 100410 75
2009-07-23 12:31 51°33.686 2°58.53 2.4 6 17.7 100410 75
2009-07-23 12:32 51°33.749 2°58.853 2 10 17.7 100420 75
2009-07-23 12:33 51°33.814 2°59.177 2.2 359 17.7 100410 76
2009-07-23 12:34 51°33.88 2°59.5 1.8 1 17.7 100420 76
2009-07-23 12:35 51°33.88 2°59.832 5.5 14 17.6 100420 73
2009-07-23 12:36 51°33.778 3°0.113 8.9 1 17.6 100410 77
2009-07-23 12:37 51°33.614 3°0.284 10.1 352 17.5 100410 77
2009-07-23 12:38 51°33.428 3°0.306 11.2 343 17.5 100390 77
2009-07-23 12:39 51°33.252 3°0.232 10.3 340 17.6 100400 78
2009-07-23 12:40 51°33.079 3°0.141 10.4 341 17.7 100380 78
2009-07-23 12:41 51°32.909 3°0.047 12.8 339 17.8 100390 77
2009-07-23 12:42 51°32.741 2°59.951 11.1 342 17.8 100380 76
2009-07-23 12:43 51°32.575 2°59.859 10.6 340 17.8 100400 76
2009-07-23 12:44 51°32.409 2°59.763 10.8 339 17.9 100400 77
2009-07-23 12:45 51°32.244 2°59.667 10.2 343 17.9 100400 78
2009-07-23 12:46 51°32.081 2°59.573 11.5 343 17.9 100400 79
2009-07-23 12:47 51°31.92 2°59.485 10.3 342 17.9 100400 78
2009-07-23 12:48 51°31.761 2°59.401 10.2 340 17.8 100410 78
2009-07-23 12:49 51°31.603 2°59.319 11.7 339 17.8 100410 79
2009-07-23 12:50 51°31.446 2°59.238 11 340 17.8 100400 77
2009-07-23 12:51 51°31.289 2°59.156 11.9 337 17.8 100400 76
2009-07-23 12:52 51°31.133 2°59.071 10.2 339 17.8 100410 78
2009-07-23 12:53 51°30.98 2°58.985 12.5 336 17.8 100420 79
2009-07-23 12:54 51°30.827 2°58.897 11.4 339 17.7 100410 76
2009-07-23 12:55 51°30.674 2°58.804 11.7 340 17.7 100420 76
2009-07-23 12:56 51°30.521 2°58.714 11 342 17.8 100420 76
2009-07-23 12:57 51°30.367 2°58.624 10.1 338 17.8 100430 78
2009-07-23 12:58 51°30.212 2°58.537 10.8 336 17.8 100420 78
2009-07-23 12:59 51°30.054 2°58.465 11.1 341 17.8 100420 77
2009-07-23 13:00 51°29.895 2°58.391 10.6 342 17.8 100430 77
2009-07-23 13:01 51°29.738 2°58.313 10.9 343 17.7 100420 75
2009-07-23 13:02 51°29.579 2°58.235 11.9 339 17.8 100430 77
2009-07-23 13:03 51°29.422 2°58.155 9.9 341 17.8 100430 76
2009-07-23 13:04 51°29.273 2°58.079 10.3 344 17.8 100430 76
2009-07-23 13:05 51°29.12 2°58.007 11.2 343 17.7 100420 75
2009-07-23 13:06 51°28.967 2°57.935 10.2 344 17.8 100430 76
2009-07-23 13:07 51°28.814 2°57.863 11.6 341 17.8 100430 66
2009-07-23 13:08 51°28.661 2°57.789 11.8 339 17.8 100440 71
2009-07-23 13:09 51°28.507 2°57.718 10.8 342 17.8 100430 73
2009-07-23 13:10 51°28.354 2°57.643 11.4 343 17.9 100430 72
2009-07-23 13:11 51°28.201 2°57.568 12.2 340 17.9 100430 74
2009-07-23 13:12 51°28.049 2°57.492 12.8 341 17.8 100440 72
2009-07-23 13:13 51°27.897 2°57.415 11.8 341 17.9 100440 72
2009-07-23 13:14 51°27.744 2°57.34 12.2 344 17.9 100430 70
2009-07-23 13:15 51°27.591 2°57.264 12.3 345 17.9 100440 71
2009-07-23 13:16 51°27.439 2°57.188 12.8 342 17.7 100440 69
2009-07-23 13:17 51°27.285 2°57.109 12.1 344 17.8 100440 71
2009-07-23 13:18 51°27.133 2°57.031 12.7 343 17.7 100440 66
2009-07-23 13:19 51°26.979 2°56.957 11.6 346 17.6 100440 70
2009-07-23 13:20 51°26.824 2°56.886 11.4 344 17.6 100440 70
2009-07-23 13:21 51°26.668 2°56.811 12.5 342 17.7 100440 73
2009-07-23 13:22 51°26.511 2°56.73 11.6 342 17.7 100440 72
2009-07-23 13:23 51°26.352 2°56.65 12.7 345 17.7 100450 69
2009-07-23 13:24 51°26.193 2°56.573 12.9 344 17.7 100460 72
2009-07-23 13:25 51°26.034 2°56.496 11.3 345 17.7 100450 71
2009-07-23 13:26 51°25.876 2°56.416 11.6 343 17.7 100450 71
2009-07-23 13:27 51°25.717 2°56.338 11.5 343 17.8 100450 72
2009-07-23 13:28 51°25.558 2°56.256 13.3 342 17.7 100460 70
2009-07-23 13:29 51°25.399 2°56.178 12.9 342 17.8 100460 70
2009-07-23 13:30 51°25.239 2°56.102 11.6 343 17.9 100460 69
2009-07-23 13:31 51°25.079 2°56.024 12.3 343 17.8 100460 69
2009-07-23 13:32 51°24.92 2°55.953 12.7 342 17.9 100460 72
2009-07-23 13:33 51°24.763 2°55.878 11.6 344 17.8 100460 71
2009-07-23 13:34 51°24.607 2°55.806 11.2 344 17.7 100470 71
2009-07-23 13:35 51°24.452 2°55.732 10 344 17.7 100470 71
2009-07-23 13:36 51°24.298 2°55.647 10.6 343 17.7 100470 73
2009-07-23 13:37 51°24.145 2°55.56 10.8 345 17.6 100480 71
2009-07-23 13:38 51°23.995 2°55.475 12.5 346 17.7 100480 72
2009-07-23 13:39 51°23.844 2°55.389 9.9 343 17.6 100480 72
2009-07-23 13:40 51°23.693 2°55.302 10.6 345 17.7 100490 74
2009-07-23 13:41 51°23.541 2°55.215 11.2 346 17.7 100490 74
2009-07-23 13:42 51°23.391 2°55.135 11.8 346 17.6 100480 71
2009-07-23 13:43 51°23.256 2°55.015 10.9 345 17.6 100480 70
2009-07-23 13:44 51°23.122 2°54.887 11.9 344 17.7 100480 70
2009-07-23 13:45 51°22.993 2°54.762 10.9 344 17.8 100480 71
2009-07-23 13:46 51°22.86 2°54.641 10.7 345 17.8 100470 70
2009-07-23 13:47 51°22.726 2°54.514 10.4 344 17.8 100480 71
2009-07-23 13:48 51°22.59 2°54.393 11.1 343 17.8 100480 72
2009-07-23 13:49 51°22.454 2°54.27 12.1 343 17.9 100480 73
2009-07-23 13:50 51°22.317 2°54.15 10.2 342 17.9 100470 72
2009-07-23 13:51 51°22.18 2°54.024 12 345 17.8 100480 72
2009-07-23 13:52 51°22.041 2°53.895 12.2 344 17.8 100480 72
2009-07-23 13:53 51°21.901 2°53.769 12 347 17.8 100480 72
2009-07-23 13:54 51°21.76 2°53.641 11.8 346 17.8 100480 73
2009-07-23 13:55 51°21.616 2°53.524 11.5 351 17.8 100490 74
2009-07-23 13:56 51°21.458 2°53.442 12 351 17.7 100490 74
2009-07-23 13:57 51°21.298 2°53.358 11.3 350 17.7 100480 75
2009-07-23 13:58 51°21.137 2°53.272 11.5 348 17.7 100490 73
2009-07-23 13:59 51°20.978 2°53.18 10.2 350 17.6 100480 70
2009-07-23 14:00 51°20.818 2°53.089 9.8 350 17.7 100490 72
2009-07-23 14:01 51°20.658 2°52.999 11.1 350 17.8 100490 72
2009-07-23 14:02 51°20.497 2°52.909 11 351 17.8 100510 73
2009-07-23 14:03 51°20.328 2°52.85 9.6 353 17.8 100510 74
2009-07-23 14:04 51°20.156 2°52.825 9.8 352 17.7 100510 72
2009-07-23 14:05 51°19.984 2°52.797 9.2 352 17.8 100510 71
2009-07-23 14:06 51°19.813 2°52.767 8.7 351 17.7 100500 69
2009-07-23 14:07 51°19.644 2°52.732 9.1 350 17.8 100520 71
2009-07-23 14:08 51°19.476 2°52.701 11 351 17.9 100520 72
2009-07-23 14:09 51°19.309 2°52.671 10.4 351 17.8 100520 72
2009-07-23 14:10 51°19.142 2°52.637 11 350 17.9 100510 73
2009-07-23 14:11 51°18.975 2°52.604 11.2 351 17.8 100500 72
2009-07-23 14:12 51°18.808 2°52.569 10.7 352 17.8 100500 72
2009-07-23 14:13 51°18.64 2°52.533 10 352 17.8 100500 72
2009-07-23 14:14 51°18.472 2°52.494 9.7 350 17.9 100500 73
2009-07-23 14:15 51°18.305 2°52.45 11.4 353 17.9 100500 74
2009-07-23 14:16 51°18.138 2°52.417 11.2 352 17.9 100500 74
2009-07-23 14:17 51°17.973 2°52.384 10.7 352 17.9 100490 73
2009-07-23 14:18 51°17.807 2°52.364 9.7 353 17.9 100500 75
2009-07-23 14:19 51°17.64 2°52.353 10.1 352 17.8 100500 74
2009-07-23 14:20 51°17.472 2°52.352 9.3 355 17.8 100500 73
2009-07-23 14:21 51°17.302 2°52.379 9.4 357 17.8 100500 73
2009-07-23 14:22 51°17.133 2°52.446 6.4 358 17.8 100510 74
2009-07-23 14:23 51°16.968 2°52.553 7.4 360 17.9 100510 74
2009-07-23 14:24 51°16.805 2°52.673 6.4 359 17.9 100510 76
2009-07-23 14:25 51°16.642 2°52.799 7.6 -999 17.9 100510 76
2009-07-23 14:26 51°16.478 2°52.923 7.2 2 17.8 100510 72
2009-07-23 14:27 51°16.314 2°53.047 6.5 1 17.9 100510 73
2009-07-23 14:28 51°16.151 2°53.179 6.9 357 17.9 100510 73
2009-07-23 14:29 51°15.99 2°53.318 8 359 17.9 100510 75
2009-07-23 14:30 51°15.828 2°53.454 6.4 358 18 100510 74
2009-07-23 14:31 51°15.664 2°53.584 7.5 358 18 100510 75
2009-07-23 14:32 51°15.5 2°53.716 7.2 1 18 100510 75
2009-07-23 14:33 51°15.337 2°53.851 6.5 358 18 100510 75
2009-07-23 14:34 51°15.172 2°53.989 6.4 2 17.9 100500 75
2009-07-23 14:35 51°15.019 2°54.147 7.1 1 17.9 100510 75
2009-07-23 14:36 51°14.871 2°54.328 5.8 5 17.9 100510 75
2009-07-23 14:37 51°14.726 2°54.518 6.1 7 17.9 100510 76
2009-07-23 14:38 51°14.581 2°54.709 5 3 18 100520 76
2009-07-23 14:39 51°14.439 2°54.909 5.9 8 18 100520 76
2009-07-23 14:40 51°14.318 2°55.134 4.4 9 18 100520 75
2009-07-23 14:41 51°14.213 2°55.322 4.9 8 18.1 100520 75
2009-07-23 14:42 51°14.093 2°55.458 4.1 8 18.2 100520 76
2009-07-23 14:43 51°13.956 2°55.552 6.8 357 18.3 100530 75
2009-07-23 14:44 51°13.837 2°55.632 3.6 343 18.3 100530 72
2009-07-23 14:45 51°13.739 2°55.731 3.4 2 18.5 100530 72
2009-07-23 14:46 51°13.692 2°55.842 2.4 41 18.6 100530 70
2009-07-23 14:47 51°13.671 2°55.934 3.9 25 18.6 100540 69
2009-07-23 14:48 51°13.664 2°55.956 2.8 29 18.6 100530 68
2009-07-23 14:49 51°13.661 2°55.96 3.7 28 18.8 100540 72
2009-07-23 14:50 51°13.662 2°55.961 4.5 26 18.9 100530 68
2009-07-23 14:51 51°13.663 2°55.961 5.2 20 18.8 100530 69